^^
Your Local Weather - Clay, NY Station Historical Data
Daily Summary for January 12, 2017 Units:  English    Metric   Both
« Previous Day
Next Day »
Daily Weekly Monthly Yearly Custom
  High: Low: Average:
Temperature: 55.4 °F 35.0 °F 47.3 °F
Dew Point: 49.8 °F 32.6 °F 42.4 °F
Humidity: 93% 73% 83%
Wind Speed: 12.0mph 0.0mph 4.5mph
Wind Gust: 19.0mph - -
Wind- - SW
Pressure: 30.16 in 29.74 in -
Precipitation: 0.41 in    
Historical Graphs
 
 
Tabular Data for January 12, 2017
Time Temperature Dew Point Pressure Wind Wind Speed Wind Gust Humidity Rainfall Rate (Hourly) solar
00:04 48.0 °F 39.8 °F 29.86 in SE 11.0 mph 15.0 mph 73% 0.00 in 0 W/m2
00:10 47.8 °F 39.9 °F 29.85 in SSE 12.0 mph 19.0 mph 74% 0.00 in 0 W/m2
00:16 47.6 °F 39.7 °F 29.84 in South 12.0 mph 19.0 mph 74% 0.00 in 0 W/m2
00:22 47.4 °F 39.9 °F 29.84 in SSE 10.0 mph 11.0 mph 75% 0.00 in 0 W/m2
00:28 47.4 °F 39.9 °F 29.84 in SW 8.0 mph 11.0 mph 75% 0.00 in 0 W/m2
00:34 47.6 °F 40.1 °F 29.84 in SSE 10.0 mph 13.0 mph 75% 0.00 in 0 W/m2
00:40 47.8 °F 40.3 °F 29.84 in SSE 10.0 mph 12.0 mph 75% 0.00 in 0 W/m2
00:46 47.9 °F 40.4 °F 29.84 in South 10.0 mph 12.0 mph 75% 0.00 in 0 W/m2
00:52 47.8 °F 40.3 °F 29.84 in South 11.0 mph 11.0 mph 75% 0.00 in 0 W/m2
00:58 47.6 °F 40.1 °F 29.84 in South 10.0 mph 11.0 mph 75% 0.00 in 0 W/m2
01:04 47.5 °F 40.0 °F 29.84 in South 9.0 mph 16.0 mph 75% 0.00 in 0 W/m2
01:10 47.6 °F 40.4 °F 29.84 in South 10.0 mph 10.0 mph 76% 0.00 in 0 W/m2
01:16 47.2 °F 40.4 °F 29.83 in SSE 10.0 mph 12.0 mph 77% 0.00 in 0 W/m2
01:22 47.1 °F 40.3 °F 29.83 in SE 8.0 mph 9.0 mph 77% 0.00 in 0 W/m2
01:28 46.9 °F 40.1 °F 29.83 in South 8.0 mph 9.0 mph 77% 0.00 in 0 W/m2
01:34 47.0 °F 40.2 °F 29.82 in SSE 7.0 mph 8.0 mph 77% 0.00 in 0 W/m2
01:40 46.8 °F 40.0 °F 29.82 in South 5.0 mph 5.0 mph 77% 0.00 in 0 W/m2
01:46 46.6 °F 40.1 °F 29.82 in South 4.0 mph 6.0 mph 78% 0.00 in 0 W/m2
01:52 47.1 °F 40.6 °F 29.82 in SSW 5.0 mph 6.0 mph 78% 0.00 in 0 W/m2
01:58 47.4 °F 41.2 °F 29.82 in SSE 5.0 mph 12.0 mph 79% 0.00 in 0 W/m2
02:04 47.1 °F 41.6 °F 29.81 in South 7.0 mph 7.0 mph 81% 0.13 in 0 W/m2
02:10 46.8 °F 41.6 °F 29.81 in South 7.0 mph 7.0 mph 82% 0.09 in 0 W/m2
02:16 46.7 °F 41.8 °F 29.81 in South 6.0 mph 7.0 mph 83% 0.05 in 0 W/m2
02:22 46.7 °F 41.8 °F 29.81 in South 5.0 mph 6.0 mph 83% 0.00 in 0 W/m2
02:28 46.9 °F 42.0 °F 29.81 in South 5.0 mph 7.0 mph 83% 0.00 in 0 W/m2
02:34 46.9 °F 42.0 °F 29.81 in WSW 5.0 mph 5.0 mph 83% 0.00 in 0 W/m2
02:40 47.0 °F 42.1 °F 29.81 in SE 5.0 mph 5.0 mph 83% 0.00 in 0 W/m2
02:46 47.1 °F 42.2 °F 29.81 in South 5.0 mph 5.0 mph 83% 0.00 in 0 W/m2
02:52 47.3 °F 42.4 °F 29.81 in South 5.0 mph 6.0 mph 83% 0.00 in 0 W/m2
02:58 47.2 °F 42.3 °F 29.80 in South 4.0 mph 6.0 mph 83% 0.00 in 0 W/m2
03:04 47.5 °F 42.6 °F 29.79 in South 5.0 mph 5.0 mph 83% 0.00 in 0 W/m2
03:10 47.5 °F 42.6 °F 29.79 in South 5.0 mph 7.0 mph 83% 0.00 in 0 W/m2
03:16 47.4 °F 42.5 °F 29.78 in South 5.0 mph 13.0 mph 83% 0.00 in 0 W/m2
03:22 47.2 °F 42.3 °F 29.78 in SSE 5.0 mph 6.0 mph 83% 0.00 in 0 W/m2
03:28 47.4 °F 42.5 °F 29.78 in SSE 4.0 mph 6.0 mph 83% 0.00 in 0 W/m2
03:34 47.4 °F 42.5 °F 29.77 in South 3.0 mph 7.0 mph 83% 0.00 in 0 W/m2
03:40 47.6 °F 42.7 °F 29.76 in East 3.0 mph 8.0 mph 83% 0.00 in 0 W/m2
03:46 48.0 °F 42.8 °F 29.76 in South 5.0 mph 11.0 mph 82% 0.00 in 0 W/m2
03:52 48.3 °F 43.1 °F 29.76 in SSE 5.0 mph 7.0 mph 82% 0.00 in 0 W/m2
03:58 49.1 °F 43.5 °F 29.75 in SSE 6.0 mph 11.0 mph 81% 0.00 in 0 W/m2
04:04 49.8 °F 43.9 °F 29.76 in SSE 7.0 mph 7.0 mph 80% 0.00 in 0 W/m2
04:10 50.4 °F 44.1 °F 29.75 in WSW 7.0 mph 12.0 mph 79% 0.00 in 0 W/m2
04:16 50.9 °F 44.3 °F 29.75 in South 7.0 mph 13.0 mph 78% 0.00 in 0 W/m2
04:22 51.2 °F 44.2 °F 29.75 in SW 9.0 mph 11.0 mph 77% 0.00 in 0 W/m2
04:28 51.4 °F 44.4 °F 29.75 in SSW 8.0 mph 11.0 mph 77% 0.00 in 0 W/m2
04:34 52.0 °F 44.7 °F 29.75 in WSW 9.0 mph 15.0 mph 76% 0.00 in 0 W/m2
04:40 51.9 °F 44.6 °F 29.76 in South 8.0 mph 8.0 mph 76% 0.00 in 0 W/m2
04:46 51.7 °F 44.4 °F 29.75 in SSW 7.0 mph 8.0 mph 76% 0.00 in 0 W/m2
04:52 51.9 °F 44.6 °F 29.75 in South 7.0 mph 12.0 mph 76% 0.00 in 0 W/m2
04:58 52.0 °F 44.7 °F 29.75 in WSW 8.0 mph 12.0 mph 76% 0.00 in 0 W/m2
05:04 52.1 °F 44.8 °F 29.75 in WSW 8.0 mph 16.0 mph 76% 0.00 in 0 W/m2
05:10 52.2 °F 44.9 °F 29.75 in SSW 7.0 mph 9.0 mph 76% 0.00 in 0 W/m2
05:16 52.3 °F 45.0 °F 29.75 in SSW 7.0 mph 9.0 mph 76% 0.00 in 0 W/m2
05:22 52.3 °F 45.0 °F 29.75 in SW 7.0 mph 8.0 mph 76% 0.00 in 0 W/m2
05:28 52.4 °F 45.1 °F 29.75 in SSE 7.0 mph 8.0 mph 76% 0.00 in 0 W/m2
05:34 52.5 °F 45.2 °F 29.75 in South 6.0 mph 10.0 mph 76% 0.00 in 0 W/m2
05:40 52.7 °F 45.3 °F 29.75 in SW 7.0 mph 7.0 mph 76% 0.00 in 0 W/m2
05:46 52.6 °F 45.2 °F 29.75 in SSE 6.0 mph 7.0 mph 76% 0.00 in 0 W/m2
05:52 52.7 °F 45.3 °F 29.75 in SSW 7.0 mph 14.0 mph 76% 0.00 in 0 W/m2
05:58 52.7 °F 45.3 °F 29.75 in SSE 7.0 mph 14.0 mph 76% 0.00 in 0 W/m2
06:04 52.7 °F 45.3 °F 29.75 in SW 7.0 mph 11.0 mph 76% 0.00 in 0 W/m2
06:10 52.7 °F 45.3 °F 29.75 in WSW 7.0 mph 7.0 mph 76% 0.00 in 0 W/m2
06:16 52.8 °F 45.4 °F 29.74 in SSE 7.0 mph 8.0 mph 76% 0.00 in 0 W/m2
06:22 52.9 °F 45.2 °F 29.74 in SE 9.0 mph 10.0 mph 75% 0.00 in 0 W/m2
06:28 53.0 °F 45.3 °F 29.74 in SSE 8.0 mph 10.0 mph 75% 0.00 in 0 W/m2
06:34 53.0 °F 45.3 °F 29.75 in SSW 7.0 mph 10.0 mph 75% 0.00 in 0 W/m2
06:40 53.0 °F 45.6 °F 29.75 in SW 7.0 mph 7.0 mph 76% 0.00 in 0 W/m2
06:46 53.2 °F 45.8 °F 29.76 in SW 8.0 mph 12.0 mph 76% 0.00 in 0 W/m2
06:52 53.0 °F 45.6 °F 29.75 in SW 8.0 mph 8.0 mph 76% 0.00 in 0 W/m2
06:58 52.8 °F 45.8 °F 29.75 in SSW 7.0 mph 10.0 mph 77% 0.00 in 0 W/m2
07:04 52.8 °F 45.8 °F 29.75 in SSE 6.0 mph 10.0 mph 77% 0.00 in 0 W/m2
07:10 53.0 °F 45.6 °F 29.75 in SSW 6.0 mph 7.0 mph 76% 0.00 in 0 W/m2
07:16 53.1 °F 45.7 °F 29.75 in SSW 6.0 mph 7.0 mph 76% 0.00 in 0 W/m2
07:22 53.1 °F 45.7 °F 29.75 in SW 6.0 mph 7.0 mph 76% 0.00 in 0 W/m2
07:28 53.0 °F 46.0 °F 29.76 in South 6.0 mph 8.0 mph 77% 0.00 in 0 W/m2
07:34 53.0 °F 46.3 °F 29.75 in SW 6.0 mph 9.0 mph 78% 0.00 in 0 W/m2
07:40 52.8 °F 46.1 °F 29.75 in SSE 7.0 mph 7.0 mph 78% 0.00 in 0 W/m2
07:46 52.7 °F 46.0 °F 29.76 in SSW 7.0 mph 13.0 mph 78% 0.00 in 0 W/m2
07:52 52.7 °F 46.0 °F 29.76 in SSW 6.0 mph 8.0 mph 78% 0.00 in 7 W/m2
07:58 52.8 °F 46.1 °F 29.76 in SSE 6.0 mph 8.0 mph 78% 0.00 in 14 W/m2
08:04 53.0 °F 46.3 °F 29.76 in SSW 6.0 mph 13.0 mph 78% 0.00 in 18 W/m2
08:10 53.2 °F 46.2 °F 29.76 in SSE 7.0 mph 7.0 mph 77% 0.00 in 18 W/m2
08:16 53.4 °F 46.4 °F 29.76 in South 7.0 mph 12.0 mph 77% 0.00 in 16 W/m2
08:22 53.7 °F 46.7 °F 29.77 in South 6.0 mph 6.0 mph 77% 0.00 in 21 W/m2
08:28 54.0 °F 47.0 °F 29.77 in South 6.0 mph 8.0 mph 77% 0.00 in 19 W/m2
08:34 54.1 °F 47.0 °F 29.77 in SW 7.0 mph 9.0 mph 77% 0.00 in 18 W/m2
08:40 54.3 °F 46.9 °F 29.77 in SW 6.0 mph 6.0 mph 76% 0.00 in 21 W/m2
08:46 54.4 °F 47.0 °F 29.77 in SW 6.0 mph 9.0 mph 76% 0.00 in 26 W/m2
08:52 54.6 °F 47.2 °F 29.77 in SSW 6.0 mph 7.0 mph 76% 0.00 in 35 W/m2
08:58 54.7 °F 47.3 °F 29.77 in SW 6.0 mph 12.0 mph 76% 0.00 in 33 W/m2
09:04 54.8 °F 47.0 °F 29.78 in SSW 6.0 mph 6.0 mph 75% 0.00 in 28 W/m2
09:10 54.7 °F 47.3 °F 29.77 in SSW 6.0 mph 6.0 mph 76% 0.00 in 28 W/m2
09:16 54.8 °F 47.4 °F 29.78 in SSW 6.0 mph 10.0 mph 76% 0.00 in 58 W/m2
09:22 54.8 °F 47.4 °F 29.78 in South 5.0 mph 11.0 mph 76% 0.00 in 74 W/m2
09:28 54.8 °F 47.4 °F 29.78 in SSW 5.0 mph 11.0 mph 76% 0.00 in 58 W/m2
09:36 55.0 °F 47.6 °F 29.79 in SSE 5.0 mph 6.0 mph 76% 0.00 in 49 W/m2
09:42 55.1 °F 47.7 °F 29.79 in South 5.0 mph 6.0 mph 76% 0.00 in 49 W/m2
09:48 55.1 °F 47.7 °F 29.79 in SSE 4.0 mph 6.0 mph 76% 0.00 in 72 W/m2
09:54 55.0 °F 47.6 °F 29.79 in SSE 4.0 mph 4.0 mph 76% 0.00 in 74 W/m2
10:00 55.4 °F 47.6 °F 29.79 in South 5.0 mph 7.0 mph 75% 0.00 in 67 W/m2
10:06 55.4 °F 47.6 °F 29.80 in South 6.0 mph 7.0 mph 75% 0.00 in 56 W/m2
10:12 55.3 °F 47.5 °F 29.79 in SSW 5.0 mph 6.0 mph 75% 0.00 in 49 W/m2
10:18 55.2 °F 47.4 °F 29.80 in South 4.0 mph 6.0 mph 75% 0.00 in 47 W/m2
10:24 55.1 °F 47.3 °F 29.80 in South 3.0 mph 4.0 mph 75% 0.00 in 32 W/m2
10:30 54.8 °F 47.4 °F 29.80 in SSE 3.0 mph 6.0 mph 76% 0.00 in 26 W/m2
10:36 54.4 °F 47.3 °F 29.81 in South 4.0 mph 6.0 mph 77% 0.00 in 23 W/m2
10:42 54.3 °F 47.2 °F 29.80 in South 3.0 mph 6.0 mph 77% 0.00 in 30 W/m2
10:48 54.3 °F 47.2 °F 29.80 in South 4.0 mph 6.0 mph 77% 0.00 in 53 W/m2
10:54 54.3 °F 47.2 °F 29.80 in SSE 3.0 mph 6.0 mph 77% 0.00 in 49 W/m2
11:00 54.2 °F 47.1 °F 29.81 in South 3.0 mph 3.0 mph 77% 0.00 in 63 W/m2
11:08 54.0 °F 47.3 °F 29.80 in South 4.0 mph 6.0 mph 78% 0.00 in 67 W/m2
11:14 53.9 °F 47.5 °F 29.80 in South 4.0 mph 6.0 mph 79% 0.00 in 53 W/m2
11:20 53.8 °F 47.4 °F 29.79 in SSW 4.0 mph 4.0 mph 79% 0.00 in 47 W/m2
11:26 53.7 °F 47.7 °F 29.79 in South 4.0 mph 4.0 mph 80% 0.00 in 53 W/m2
11:32 53.6 °F 47.6 °F 29.79 in South 4.0 mph 5.0 mph 80% 0.00 in 37 W/m2
11:38 53.5 °F 47.5 °F 29.79 in SW 4.0 mph 6.0 mph 80% 0.00 in 44 W/m2
11:46 53.5 °F 47.5 °F 29.79 in South 4.0 mph 6.0 mph 80% 0.00 in 60 W/m2
11:52 53.5 °F 47.5 °F 29.78 in South 3.0 mph 7.0 mph 80% 0.00 in 62 W/m2
11:58 53.5 °F 47.5 °F 29.78 in South 4.0 mph 7.0 mph 80% 0.00 in 54 W/m2
12:04 53.5 °F 47.5 °F 29.78 in SSW 4.0 mph 4.0 mph 80% 0.00 in 51 W/m2
12:10 53.7 °F 47.7 °F 29.77 in SW 3.0 mph 8.0 mph 80% 0.00 in 47 W/m2
12:16 53.9 °F 47.9 °F 29.77 in SSE 4.0 mph 8.0 mph 80% 0.00 in 44 W/m2
12:22 53.9 °F 47.5 °F 29.76 in SSW 4.0 mph 5.0 mph 79% 0.00 in 39 W/m2
12:28 54.2 °F 47.8 °F 29.76 in SSW 4.0 mph 8.0 mph 79% 0.00 in 51 W/m2
12:36 54.3 °F 47.9 °F 29.75 in South 4.0 mph 7.0 mph 79% 0.00 in 56 W/m2
12:42 54.7 °F 48.3 °F 29.75 in SSW 5.0 mph 6.0 mph 79% 0.00 in 46 W/m2
12:48 54.7 °F 48.3 °F 29.75 in SSW 5.0 mph 6.0 mph 79% 0.00 in 49 W/m2
12:56 54.8 °F 48.4 °F 29.75 in South 4.0 mph 5.0 mph 79% 0.00 in 37 W/m2
13:04 54.6 °F 48.6 °F 29.75 in SSE 3.0 mph 4.0 mph 80% 0.00 in 42 W/m2
13:10 54.6 °F 48.6 °F 29.75 in South 3.0 mph 3.0 mph 80% 0.00 in 46 W/m2
13:16 54.4 °F 48.7 °F 29.76 in SSE 3.0 mph 5.0 mph 81% 0.00 in 33 W/m2
13:22 54.2 °F 48.8 °F 29.76 in SSW 4.0 mph 6.0 mph 82% 0.00 in 37 W/m2
13:28 54.2 °F 49.1 °F 29.76 in South 4.0 mph 6.0 mph 83% 0.00 in 28 W/m2
13:34 53.9 °F 49.2 °F 29.76 in SSE 3.0 mph 5.0 mph 84% 0.00 in 19 W/m2
13:40 53.7 °F 49.3 °F 29.76 in SSW 3.0 mph 4.0 mph 85% 0.00 in 12 W/m2
13:46 53.5 °F 49.4 °F 29.76 in SSW 3.0 mph 6.0 mph 86% 0.00 in 16 W/m2
13:52 53.4 °F 49.3 °F 29.76 in South 3.0 mph 7.0 mph 86% 0.06 in 21 W/m2
13:58 53.3 °F 49.5 °F 29.76 in South 4.0 mph 7.0 mph 87% 0.17 in 16 W/m2
14:04 53.3 °F 49.5 °F 29.76 in SSE 4.0 mph 4.0 mph 87% 0.14 in 25 W/m2
14:10 53.2 °F 49.7 °F 29.76 in SSW 4.0 mph 5.0 mph 88% 0.20 in 25 W/m2
14:16 53.1 °F 49.6 °F 29.77 in South 4.0 mph 5.0 mph 88% 0.16 in 11 W/m2
14:22 53.0 °F 49.8 °F 29.76 in South 2.0 mph 3.0 mph 89% 0.15 in 16 W/m2
14:28 52.8 °F 49.6 °F 29.76 in SW 2.0 mph 4.0 mph 89% 0.13 in 28 W/m2
14:36 52.7 °F 49.5 °F 29.77 in WNW 2.0 mph 3.0 mph 89% 0.08 in 14 W/m2
14:42 49.4 °F 45.1 °F 29.78 in NNW 5.0 mph 8.0 mph 85% 0.06 in 7 W/m2
14:48 47.0 °F 43.3 °F 29.79 in West 9.0 mph 9.0 mph 87% 0.10 in 5 W/m2
14:56 45.9 °F 42.8 °F 29.80 in NNW 6.0 mph 10.0 mph 89% 0.35 in 7 W/m2
15:04 45.2 °F 42.2 °F 29.83 in NW 5.0 mph 6.0 mph 89% 0.14 in 5 W/m2
15:10 44.8 °F 42.0 °F 29.84 in WNW 3.0 mph 3.0 mph 90% 0.29 in 5 W/m2
15:16 44.3 °F 41.6 °F 29.84 in NW 4.0 mph 6.0 mph 90% 0.24 in 5 W/m2
15:22 44.1 °F 41.4 °F 29.83 in NW 2.0 mph 3.0 mph 90% 0.19 in 7 W/m2
15:29 43.9 °F 41.4 °F 29.81 in NW 1.0 mph 3.0 mph 91% 0.31 in 12 W/m2
15:36 43.7 °F 41.2 °F 29.81 in NW 1.0 mph 2.0 mph 91% 0.33 in 25 W/m2
15:42 43.7 °F 41.2 °F 29.82 in NW 1.0 mph 1.0 mph 91% 0.21 in 21 W/m2
15:48 43.6 °F 41.1 °F 29.79 in NW 1.0 mph 2.0 mph 91% 0.12 in 21 W/m2
15:56 43.5 °F 41.3 °F 29.80 in NW 1.0 mph 2.0 mph 92% 0.07 in 32 W/m2
16:02 43.6 °F 41.4 °F 29.82 in NW 1.0 mph 1.0 mph 92% 0.04 in 18 W/m2
16:08 43.7 °F 41.5 °F 29.84 in Calm   1.0 mph 92% 0.00 in 9 W/m2
16:14 43.6 °F 41.4 °F 29.84 in Calm     92% 0.00 in 0 W/m2
16:20 43.4 °F 41.2 °F 29.84 in Calm   2.0 mph 92% 0.00 in 0 W/m2
16:26 43.4 °F 41.2 °F 29.84 in NW 1.0 mph 2.0 mph 92% 0.00 in 0 W/m2
16:32 43.3 °F 41.1 °F 29.84 in Calm     92% 0.00 in 0 W/m2
16:38 43.1 °F 40.9 °F 29.84 in Calm     92% 0.00 in 0 W/m2
16:44 43.0 °F 41.1 °F 29.83 in NW 1.0 mph 3.0 mph 93% 0.00 in 0 W/m2
16:50 42.9 °F 40.7 °F 29.82 in NW 1.0 mph 1.0 mph 92% 0.00 in 0 W/m2
16:56 42.7 °F 40.8 °F 29.84 in Calm   1.0 mph 93% 0.00 in 0 W/m2
17:02 42.6 °F 40.7 °F 29.85 in Calm     93% 0.00 in 0 W/m2
17:08 42.7 °F 40.8 °F 29.84 in Calm     93% 0.00 in 0 W/m2
17:14 42.3 °F 40.4 °F 29.84 in NW 1.0 mph 3.0 mph 93% 0.00 in 0 W/m2
17:20 42.6 °F 40.7 °F 29.85 in NW 1.0 mph 1.0 mph 93% 0.00 in 0 W/m2
17:26 42.7 °F 40.8 °F 29.85 in Calm   1.0 mph 93% 0.00 in 0 W/m2
17:32 42.8 °F 40.9 °F 29.86 in Calm   2.0 mph 93% 0.00 in 0 W/m2
17:38 42.7 °F 40.8 °F 29.86 in Calm   2.0 mph 93% 0.00 in 0 W/m2
17:44 42.8 °F 40.9 °F 29.87 in Calm     93% 0.00 in 0 W/m2
17:50 42.7 °F 40.8 °F 29.87 in Calm     93% 0.00 in 0 W/m2
17:56 42.7 °F 40.8 °F 29.87 in Calm     93% 0.00 in 0 W/m2
18:02 42.6 °F 40.7 °F 29.88 in Calm     93% 0.00 in 0 W/m2
18:08 42.5 °F 40.6 °F 29.88 in Calm     93% 0.00 in 0 W/m2
18:14 42.4 °F 40.5 °F 29.89 in Calm     93% 0.00 in 0 W/m2
18:20 42.7 °F 40.8 °F 29.89 in NW 1.0 mph 1.0 mph 93% 0.00 in 0 W/m2
18:26 42.7 °F 40.8 °F 29.90 in NW 1.0 mph 1.0 mph 93% 0.00 in 0 W/m2
18:32 42.6 °F 40.7 °F 29.90 in NW 2.0 mph 3.0 mph 93% 0.00 in 0 W/m2
18:38 42.3 °F 40.4 °F 29.91 in WNW 3.0 mph 6.0 mph 93% 0.00 in 0 W/m2
18:44 42.0 °F 40.1 °F 29.91 in NW 3.0 mph 5.0 mph 93% 0.00 in 0 W/m2
18:50 41.6 °F 39.7 °F 29.92 in WNW 3.0 mph 4.0 mph 93% 0.00 in 0 W/m2
18:56 41.3 °F 39.4 °F 29.92 in WSW 3.0 mph 7.0 mph 93% 0.00 in 0 W/m2
19:02 41.1 °F 39.0 °F 29.93 in WNW 2.0 mph 5.0 mph 92% 0.00 in 0 W/m2
19:08 40.9 °F 38.8 °F 29.94 in NW 2.0 mph 5.0 mph 92% 0.00 in 0 W/m2
19:14 40.7 °F 38.6 °F 29.95 in NW 3.0 mph 3.0 mph 92% 0.00 in 0 W/m2
19:20 40.3 °F 38.2 °F 29.95 in WNW 4.0 mph 4.0 mph 92% 0.00 in 0 W/m2
19:26 40.0 °F 37.9 °F 29.96 in WNW 3.0 mph 4.0 mph 92% 0.00 in 0 W/m2
19:32 39.9 °F 37.5 °F 29.96 in WNW 4.0 mph 6.0 mph 91% 0.00 in 0 W/m2
19:38 39.7 °F 37.6 °F 29.98 in WNW 4.0 mph 6.0 mph 92% 0.00 in 0 W/m2
19:44 39.5 °F 37.4 °F 29.98 in WNW 3.0 mph 3.0 mph 92% 0.00 in 0 W/m2
19:50 39.3 °F 36.9 °F 29.99 in WNW 4.0 mph 4.0 mph 91% 0.00 in 0 W/m2
19:56 39.2 °F 36.8 °F 29.99 in WNW 4.0 mph 6.0 mph 91% 0.00 in 0 W/m2
20:03 39.2 °F 36.8 °F 30.00 in West 5.0 mph 5.0 mph 91% 0.00 in 0 W/m2
20:08 39.1 °F 36.7 °F 30.00 in WSW 4.0 mph 5.0 mph 91% 0.00 in 0 W/m2
20:16 39.0 °F 36.6 °F 30.01 in West 2.0 mph 5.0 mph 91% 0.00 in 0 W/m2
20:22 39.0 °F 36.6 °F 30.01 in WSW 2.0 mph 3.0 mph 91% 0.00 in 0 W/m2
20:28 38.9 °F 36.5 °F 30.02 in NW 3.0 mph 5.0 mph 91% 0.00 in 0 W/m2
20:34 38.9 °F 36.2 °F 30.02 in WNW 3.0 mph 4.0 mph 90% 0.00 in 0 W/m2
20:40 38.9 °F 36.2 °F 30.03 in West 3.0 mph 3.0 mph 90% 0.00 in 0 W/m2
20:46 38.8 °F 36.1 °F 30.04 in WNW 3.0 mph 3.0 mph 90% 0.00 in 0 W/m2
20:52 38.6 °F 35.6 °F 30.05 in NW 3.0 mph 6.0 mph 89% 0.00 in 0 W/m2
20:58 38.5 °F 35.3 °F 30.05 in WNW 4.0 mph 9.0 mph 88% 0.00 in 0 W/m2
21:04 38.4 °F 35.2 °F 30.06 in NW 4.0 mph 4.0 mph 88% 0.00 in 0 W/m2
21:10 38.3 °F 35.1 °F 30.06 in WNW 3.0 mph 3.0 mph 88% 0.00 in 0 W/m2
21:16 38.2 °F 34.7 °F 30.07 in NW 4.0 mph 7.0 mph 87% 0.00 in 0 W/m2
21:22 38.1 °F 34.6 °F 30.07 in WNW 4.0 mph 5.0 mph 87% 0.00 in 0 W/m2
21:28 38.0 °F 34.5 °F 30.08 in West 4.0 mph 5.0 mph 87% 0.00 in 0 W/m2
21:34 37.9 °F 34.4 °F 30.08 in WNW 3.0 mph 4.0 mph 87% 0.00 in 0 W/m2
21:40 37.7 °F 34.5 °F 30.09 in WNW 3.0 mph 3.0 mph 88% 0.00 in 0 W/m2
21:46 37.5 °F 34.3 °F 30.09 in NW 3.0 mph 3.0 mph 88% 0.00 in 0 W/m2
21:52 37.4 °F 34.2 °F 30.10 in West 3.0 mph 5.0 mph 88% 0.00 in 0 W/m2
22:00 37.1 °F 34.2 °F 30.10 in NNW 4.0 mph 4.0 mph 89% 0.00 in 0 W/m2
22:06 36.8 °F 33.9 °F 30.10 in WNW 4.0 mph 5.0 mph 89% 0.00 in 0 W/m2
22:12 36.6 °F 33.7 °F 30.10 in WNW 3.0 mph 6.0 mph 89% 0.00 in 0 W/m2
22:18 36.5 °F 33.6 °F 30.10 in WNW 3.0 mph 6.0 mph 89% 0.00 in 0 W/m2
22:24 36.4 °F 33.5 °F 30.10 in WNW 3.0 mph 3.0 mph 89% 0.00 in 0 W/m2
22:30 36.3 °F 33.6 °F 30.12 in WNW 3.0 mph 3.0 mph 90% 0.00 in 0 W/m2
22:36 36.2 °F 33.5 °F 30.12 in West 3.0 mph 6.0 mph 90% 0.00 in 0 W/m2
22:42 36.1 °F 33.5 °F 30.12 in WNW 3.0 mph 5.0 mph 90% 0.00 in 0 W/m2
22:48 36.0 °F 33.4 °F 30.13 in WNW 3.0 mph 5.0 mph 90% 0.00 in 0 W/m2
22:54 35.9 °F 33.3 °F 30.13 in West 3.0 mph 4.0 mph 90% 0.00 in 0 W/m2
23:00 35.8 °F 33.2 °F 30.12 in West 2.0 mph 2.0 mph 90% 0.00 in 0 W/m2
23:06 35.7 °F 33.3 °F 30.12 in WNW 2.0 mph 4.0 mph 91% 0.00 in 0 W/m2
23:12 35.7 °F 33.3 °F 30.13 in WNW 3.0 mph 3.0 mph 91% 0.00 in 0 W/m2
23:18 35.6 °F 33.2 °F 30.13 in West 3.0 mph 4.0 mph 91% 0.00 in 0 W/m2
23:24 35.6 °F 33.2 °F 30.14 in WNW 3.0 mph 6.0 mph 91% 0.00 in 0 W/m2
23:30 35.5 °F 33.1 °F 30.14 in WNW 3.0 mph 3.0 mph 91% 0.00 in 0 W/m2
23:36 35.5 °F 33.1 °F 30.15 in WNW 2.0 mph 3.0 mph 91% 0.00 in 0 W/m2
23:42 35.4 °F 33.0 °F 30.15 in NW 2.0 mph 3.0 mph 91% 0.00 in 0 W/m2
23:48 35.2 °F 32.8 °F 30.15 in NW 3.0 mph 4.0 mph 91% 0.00 in 0 W/m2
23:56 35.0 °F 32.6 °F 30.16 in NNW 3.0 mph 6.0 mph 91% 0.00 in 0 W/m2
Country Meadow, Clay, NY, USA
Compliments of Weather Underground - 2 mb